sensor_id;sensor_type;location;lat;lon;timestamp;P1;durP1;ratioP1;P2;durP2;ratioP2
54705;SDS011;40603;48.774;8.916;2023-06-22T00:02:16;20.08;;;8.50;;
54705;SDS011;40603;48.774;8.916;2023-06-22T00:04:42;10.07;;;7.80;;
54705;SDS011;40603;48.774;8.916;2023-06-22T00:07:07;15.57;;;9.10;;
54705;SDS011;40603;48.774;8.916;2023-06-22T00:09:33;19.60;;;8.00;;
54705;SDS011;40603;48.774;8.916;2023-06-22T00:11:58;13.07;;;8.55;;
54705;SDS011;40603;48.774;8.916;2023-06-22T00:14:24;13.00;;;9.10;;
54705;SDS011;40603;48.774;8.916;2023-06-22T00:16:49;12.15;;;8.20;;
54705;SDS011;40603;48.774;8.916;2023-06-22T00:19:19;12.63;;;9.30;;
54705;SDS011;40603;48.774;8.916;2023-06-22T00:21:46;16.08;;;8.70;;
54705;SDS011;40603;48.774;8.916;2023-06-22T00:24:12;11.63;;;8.45;;
54705;SDS011;40603;48.774;8.916;2023-06-22T00:26:37;19.88;;;9.52;;
54705;SDS011;40603;48.774;8.916;2023-06-22T00:29:02;11.52;;;8.90;;
54705;SDS011;40603;48.774;8.916;2023-06-22T00:31:28;14.82;;;9.35;;
54705;SDS011;40603;48.774;8.916;2023-06-22T00:33:53;11.43;;;8.45;;
54705;SDS011;40603;48.774;8.916;2023-06-22T00:36:18;10.48;;;7.85;;
54705;SDS011;40603;48.774;8.916;2023-06-22T00:38:49;13.13;;;7.88;;
54705;SDS011;40603;48.774;8.916;2023-06-22T00:41:15;13.25;;;7.60;;
54705;SDS011;40603;48.774;8.916;2023-06-22T00:43:41;12.55;;;8.25;;
54705;SDS011;40603;48.774;8.916;2023-06-22T00:46:07;13.80;;;8.35;;
54705;SDS011;40603;48.774;8.916;2023-06-22T00:48:32;13.48;;;8.52;;
54705;SDS011;40603;48.774;8.916;2023-06-22T00:50:58;11.30;;;8.20;;
54705;SDS011;40603;48.774;8.916;2023-06-22T00:53:23;13.68;;;8.60;;
54705;SDS011;40603;48.774;8.916;2023-06-22T00:55:49;14.55;;;8.57;;
54705;SDS011;40603;48.774;8.916;2023-06-22T00:58:17;12.95;;;8.88;;
54705;SDS011;40603;48.774;8.916;2023-06-22T01:00:46;14.52;;;9.13;;
54705;SDS011;40603;48.774;8.916;2023-06-22T01:03:12;13.48;;;8.63;;
54705;SDS011;40603;48.774;8.916;2023-06-22T01:05:37;12.23;;;9.00;;
54705;SDS011;40603;48.774;8.916;2023-06-22T01:10:51;11.77;;;7.68;;
54705;SDS011;40603;48.774;8.916;2023-06-22T01:13:25;11.98;;;8.45;;
54705;SDS011;40603;48.774;8.916;2023-06-22T01:16:12;10.52;;;8.43;;
54705;SDS011;40603;48.774;8.916;2023-06-22T01:18:43;12.68;;;8.95;;
54705;SDS011;40603;48.774;8.916;2023-06-22T01:21:11;12.23;;;7.78;;
54705;SDS011;40603;48.774;8.916;2023-06-22T01:26:32;12.05;;;7.95;;
54705;SDS011;40603;48.774;8.916;2023-06-22T01:29:03;13.23;;;8.60;;
54705;SDS011;40603;48.774;8.916;2023-06-22T01:31:29;13.43;;;8.77;;
54705;SDS011;40603;48.774;8.916;2023-06-22T01:34:00;12.52;;;9.50;;
54705;SDS011;40603;48.774;8.916;2023-06-22T01:36:27;13.32;;;8.48;;
54705;SDS011;40603;48.774;8.916;2023-06-22T01:38:53;11.98;;;8.27;;
54705;SDS011;40603;48.774;8.916;2023-06-22T01:41:19;14.65;;;8.45;;
54705;SDS011;40603;48.774;8.916;2023-06-22T01:43:45;17.75;;;8.98;;
54705;SDS011;40603;48.774;8.916;2023-06-22T01:46:12;14.68;;;9.15;;
54705;SDS011;40603;48.774;8.916;2023-06-22T01:48:38;13.85;;;9.38;;
54705;SDS011;40603;48.774;8.916;2023-06-22T01:51:04;15.60;;;10.48;;
54705;SDS011;40603;48.774;8.916;2023-06-22T01:53:29;16.45;;;10.60;;
54705;SDS011;40603;48.774;8.916;2023-06-22T01:55:54;15.38;;;9.30;;
54705;SDS011;40603;48.774;8.916;2023-06-22T01:58:21;15.07;;;9.63;;
54705;SDS011;40603;48.774;8.916;2023-06-22T02:00:50;15.75;;;10.20;;
54705;SDS011;40603;48.774;8.916;2023-06-22T02:03:19;15.75;;;9.48;;
54705;SDS011;40603;48.774;8.916;2023-06-22T02:05:52;15.45;;;10.57;;
54705;SDS011;40603;48.774;8.916;2023-06-22T02:08:22;15.25;;;9.20;;
54705;SDS011;40603;48.774;8.916;2023-06-22T02:10:50;18.05;;;9.75;;
54705;SDS011;40603;48.774;8.916;2023-06-22T02:13:17;17.10;;;10.25;;
54705;SDS011;40603;48.774;8.916;2023-06-22T02:15:43;15.75;;;10.18;;
54705;SDS011;40603;48.774;8.916;2023-06-22T02:18:08;14.93;;;9.63;;
54705;SDS011;40603;48.774;8.916;2023-06-22T02:20:37;15.65;;;10.55;;
54705;SDS011;40603;48.774;8.916;2023-06-22T02:23:03;15.30;;;9.60;;
54705;SDS011;40603;48.774;8.916;2023-06-22T02:25:28;13.68;;;9.48;;
54705;SDS011;40603;48.774;8.916;2023-06-22T02:27:54;14.68;;;8.85;;
54705;SDS011;40603;48.774;8.916;2023-06-22T02:30:19;17.90;;;10.10;;
54705;SDS011;40603;48.774;8.916;2023-06-22T02:32:44;18.15;;;10.48;;
54705;SDS011;40603;48.774;8.916;2023-06-22T02:35:09;14.13;;;9.90;;
54705;SDS011;40603;48.774;8.916;2023-06-22T02:37:35;14.32;;;10.15;;
54705;SDS011;40603;48.774;8.916;2023-06-22T02:40:03;15.98;;;9.05;;
54705;SDS011;40603;48.774;8.916;2023-06-22T02:42:31;18.40;;;9.10;;
54705;SDS011;40603;48.774;8.916;2023-06-22T02:44:57;17.10;;;9.48;;
54705;SDS011;40603;48.774;8.916;2023-06-22T02:47:22;13.23;;;8.90;;
54705;SDS011;40603;48.774;8.916;2023-06-22T02:49:47;17.85;;;9.45;;
54705;SDS011;40603;48.774;8.916;2023-06-22T02:52:13;13.73;;;8.93;;
54705;SDS011;40603;48.774;8.916;2023-06-22T02:54:38;14.93;;;9.68;;
54705;SDS011;40603;48.774;8.916;2023-06-22T02:57:03;20.67;;;10.50;;
54705;SDS011;40603;48.774;8.916;2023-06-22T02:59:29;13.65;;;9.18;;
54705;SDS011;40603;48.774;8.916;2023-06-22T03:01:54;19.48;;;9.93;;
54705;SDS011;40603;48.774;8.916;2023-06-22T03:04:20;13.57;;;10.65;;
54705;SDS011;40603;48.774;8.916;2023-06-22T03:06:46;20.23;;;10.27;;
54705;SDS011;40603;48.774;8.916;2023-06-22T03:09:15;22.35;;;11.32;;
54705;SDS011;40603;48.774;8.916;2023-06-22T03:11:41;18.20;;;11.52;;
54705;SDS011;40603;48.774;8.916;2023-06-22T03:14:06;14.25;;;10.00;;
54705;SDS011;40603;48.774;8.916;2023-06-22T03:16:31;17.48;;;9.90;;
54705;SDS011;40603;48.774;8.916;2023-06-22T03:18:58;19.27;;;10.00;;
54705;SDS011;40603;48.774;8.916;2023-06-22T03:21:23;17.75;;;9.65;;
54705;SDS011;40603;48.774;8.916;2023-06-22T03:23:49;14.10;;;8.80;;
54705;SDS011;40603;48.774;8.916;2023-06-22T03:26:16;14.82;;;9.07;;
54705;SDS011;40603;48.774;8.916;2023-06-22T03:28:42;14.30;;;8.65;;
54705;SDS011;40603;48.774;8.916;2023-06-22T03:31:07;15.80;;;8.40;;
54705;SDS011;40603;48.774;8.916;2023-06-22T03:33:33;13.63;;;8.15;;
54705;SDS011;40603;48.774;8.916;2023-06-22T03:35:58;14.70;;;8.32;;
54705;SDS011;40603;48.774;8.916;2023-06-22T03:38:23;12.95;;;8.57;;
54705;SDS011;40603;48.774;8.916;2023-06-22T03:40:49;14.35;;;9.27;;
54705;SDS011;40603;48.774;8.916;2023-06-22T03:43:14;10.27;;;8.25;;
54705;SDS011;40603;48.774;8.916;2023-06-22T03:45:39;15.82;;;9.75;;
54705;SDS011;40603;48.774;8.916;2023-06-22T03:48:05;16.40;;;9.52;;
54705;SDS011;40603;48.774;8.916;2023-06-22T03:50:30;17.52;;;9.00;;
54705;SDS011;40603;48.774;8.916;2023-06-22T03:52:55;12.63;;;8.30;;
54705;SDS011;40603;48.774;8.916;2023-06-22T03:55:21;15.63;;;9.05;;
54705;SDS011;40603;48.774;8.916;2023-06-22T03:57:46;11.50;;;8.30;;
54705;SDS011;40603;48.774;8.916;2023-06-22T04:00:12;11.70;;;8.68;;
54705;SDS011;40603;48.774;8.916;2023-06-22T04:02:38;13.15;;;8.60;;
54705;SDS011;40603;48.774;8.916;2023-06-22T04:05:03;13.40;;;8.10;;
54705;SDS011;40603;48.774;8.916;2023-06-22T04:07:29;14.90;;;8.65;;
54705;SDS011;40603;48.774;8.916;2023-06-22T04:09:54;9.50;;;7.75;;
54705;SDS011;40603;48.774;8.916;2023-06-22T04:12:19;12.45;;;9.05;;
54705;SDS011;40603;48.774;8.916;2023-06-22T04:14:45;17.00;;;8.68;;
54705;SDS011;40603;48.774;8.916;2023-06-22T04:17:10;12.85;;;8.30;;
54705;SDS011;40603;48.774;8.916;2023-06-22T04:19:39;13.75;;;8.50;;
54705;SDS011;40603;48.774;8.916;2023-06-22T04:22:04;11.93;;;8.50;;
54705;SDS011;40603;48.774;8.916;2023-06-22T04:24:31;14.80;;;9.15;;
54705;SDS011;40603;48.774;8.916;2023-06-22T04:26:56;16.48;;;9.73;;
54705;SDS011;40603;48.774;8.916;2023-06-22T04:29:22;21.13;;;9.60;;
54705;SDS011;40603;48.774;8.916;2023-06-22T04:31:53;14.68;;;9.10;;
54705;SDS011;40603;48.774;8.916;2023-06-22T04:34:20;14.18;;;9.02;;
54705;SDS011;40603;48.774;8.916;2023-06-22T04:36:46;15.70;;;9.25;;
54705;SDS011;40603;48.774;8.916;2023-06-22T04:39:11;12.00;;;9.50;;
54705;SDS011;40603;48.774;8.916;2023-06-22T04:41:37;19.50;;;10.00;;
54705;SDS011;40603;48.774;8.916;2023-06-22T04:44:09;13.07;;;8.65;;
54705;SDS011;40603;48.774;8.916;2023-06-22T04:46:38;19.23;;;10.52;;
54705;SDS011;40603;48.774;8.916;2023-06-22T04:49:04;14.13;;;10.05;;
54705;SDS011;40603;48.774;8.916;2023-06-22T04:51:41;16.80;;;8.57;;
54705;SDS011;40603;48.774;8.916;2023-06-22T04:54:07;18.23;;;10.20;;
54705;SDS011;40603;48.774;8.916;2023-06-22T04:56:33;17.02;;;10.73;;
54705;SDS011;40603;48.774;8.916;2023-06-22T04:58:59;17.10;;;10.93;;
54705;SDS011;40603;48.774;8.916;2023-06-22T05:01:24;14.52;;;9.73;;
54705;SDS011;40603;48.774;8.916;2023-06-22T05:03:50;12.63;;;8.88;;
54705;SDS011;40603;48.774;8.916;2023-06-22T05:06:16;16.80;;;9.93;;
54705;SDS011;40603;48.774;8.916;2023-06-22T05:08:42;13.75;;;9.82;;
54705;SDS011;40603;48.774;8.916;2023-06-22T05:11:08;15.80;;;10.13;;
54705;SDS011;40603;48.774;8.916;2023-06-22T05:13:34;13.65;;;10.70;;
54705;SDS011;40603;48.774;8.916;2023-06-22T05:15:59;13.13;;;10.32;;
54705;SDS011;40603;48.774;8.916;2023-06-22T05:18:27;13.40;;;9.68;;
54705;SDS011;40603;48.774;8.916;2023-06-22T05:20:54;13.50;;;10.13;;
54705;SDS011;40603;48.774;8.916;2023-06-22T05:23:19;16.55;;;10.18;;
54705;SDS011;40603;48.774;8.916;2023-06-22T05:25:45;18.10;;;11.57;;
54705;SDS011;40603;48.774;8.916;2023-06-22T05:28:10;22.48;;;10.85;;
54705;SDS011;40603;48.774;8.916;2023-06-22T05:30:36;17.92;;;10.88;;
54705;SDS011;40603;48.774;8.916;2023-06-22T05:33:01;15.38;;;11.27;;
54705;SDS011;40603;48.774;8.916;2023-06-22T05:35:27;15.70;;;10.52;;
54705;SDS011;40603;48.774;8.916;2023-06-22T05:37:52;17.58;;;10.20;;
54705;SDS011;40603;48.774;8.916;2023-06-22T05:40:17;15.02;;;10.70;;
54705;SDS011;40603;48.774;8.916;2023-06-22T05:42:43;13.02;;;10.00;;
54705;SDS011;40603;48.774;8.916;2023-06-22T05:45:08;11.82;;;9.23;;
54705;SDS011;40603;48.774;8.916;2023-06-22T05:47:34;12.93;;;10.35;;
54705;SDS011;40603;48.774;8.916;2023-06-22T05:49:59;16.60;;;9.93;;
54705;SDS011;40603;48.774;8.916;2023-06-22T05:52:25;14.10;;;10.40;;
54705;SDS011;40603;48.774;8.916;2023-06-22T05:54:50;13.85;;;9.50;;
54705;SDS011;40603;48.774;8.916;2023-06-22T05:57:15;13.02;;;9.65;;
54705;SDS011;40603;48.774;8.916;2023-06-22T05:59:40;17.50;;;10.13;;
54705;SDS011;40603;48.774;8.916;2023-06-22T06:02:06;15.07;;;9.38;;
54705;SDS011;40603;48.774;8.916;2023-06-22T06:04:31;12.90;;;8.85;;
54705;SDS011;40603;48.774;8.916;2023-06-22T06:06:56;15.48;;;9.38;;
54705;SDS011;40603;48.774;8.916;2023-06-22T06:09:22;15.10;;;9.70;;
54705;SDS011;40603;48.774;8.916;2023-06-22T06:11:47;17.08;;;10.35;;
54705;SDS011;40603;48.774;8.916;2023-06-22T06:14:12;14.60;;;9.75;;
54705;SDS011;40603;48.774;8.916;2023-06-22T06:16:38;13.60;;;8.57;;
54705;SDS011;40603;48.774;8.916;2023-06-22T06:19:03;17.25;;;9.90;;
54705;SDS011;40603;48.774;8.916;2023-06-22T06:21:28;15.20;;;9.70;;
54705;SDS011;40603;48.774;8.916;2023-06-22T06:23:54;12.48;;;8.25;;
54705;SDS011;40603;48.774;8.916;2023-06-22T06:26:19;12.55;;;7.60;;
54705;SDS011;40603;48.774;8.916;2023-06-22T06:28:52;11.70;;;7.07;;
54705;SDS011;40603;48.774;8.916;2023-06-22T06:31:17;10.50;;;6.63;;
54705;SDS011;40603;48.774;8.916;2023-06-22T06:33:43;12.68;;;6.95;;
54705;SDS011;40603;48.774;8.916;2023-06-22T06:36:08;14.73;;;6.85;;
54705;SDS011;40603;48.774;8.916;2023-06-22T06:38:33;13.57;;;7.10;;
54705;SDS011;40603;48.774;8.916;2023-06-22T06:40:59;11.57;;;7.30;;
54705;SDS011;40603;48.774;8.916;2023-06-22T06:43:24;12.02;;;7.50;;
54705;SDS011;40603;48.774;8.916;2023-06-22T06:45:49;13.38;;;6.93;;
54705;SDS011;40603;48.774;8.916;2023-06-22T06:48:15;20.33;;;7.70;;
54705;SDS011;40603;48.774;8.916;2023-06-22T06:50:40;8.77;;;5.00;;
54705;SDS011;40603;48.774;8.916;2023-06-22T06:53:05;9.82;;;5.30;;
54705;SDS011;40603;48.774;8.916;2023-06-22T06:55:32;10.55;;;5.65;;
54705;SDS011;40603;48.774;8.916;2023-06-22T06:58:00;8.30;;;5.60;;
54705;SDS011;40603;48.774;8.916;2023-06-22T07:00:26;10.73;;;5.05;;
54705;SDS011;40603;48.774;8.916;2023-06-22T07:02:52;9.10;;;5.22;;
54705;SDS011;40603;48.774;8.916;2023-06-22T07:05:17;12.85;;;5.93;;
54705;SDS011;40603;48.774;8.916;2023-06-22T07:07:43;7.60;;;5.28;;
54705;SDS011;40603;48.774;8.916;2023-06-22T07:10:08;13.35;;;5.50;;
54705;SDS011;40603;48.774;8.916;2023-06-22T07:12:34;9.82;;;4.85;;
54705;SDS011;40603;48.774;8.916;2023-06-22T07:15:03;7.97;;;4.95;;
54705;SDS011;40603;48.774;8.916;2023-06-22T07:17:29;11.20;;;5.05;;
54705;SDS011;40603;48.774;8.916;2023-06-22T07:19:54;11.93;;;5.40;;
54705;SDS011;40603;48.774;8.916;2023-06-22T07:22:20;9.77;;;5.15;;
54705;SDS011;40603;48.774;8.916;2023-06-22T07:24:45;9.95;;;5.10;;
54705;SDS011;40603;48.774;8.916;2023-06-22T07:27:10;9.15;;;5.20;;
54705;SDS011;40603;48.774;8.916;2023-06-22T07:29:37;10.48;;;4.70;;
54705;SDS011;40603;48.774;8.916;2023-06-22T07:32:04;8.88;;;4.85;;
54705;SDS011;40603;48.774;8.916;2023-06-22T07:34:30;12.98;;;4.93;;
54705;SDS011;40603;48.774;8.916;2023-06-22T07:36:55;8.52;;;4.53;;
54705;SDS011;40603;48.774;8.916;2023-06-22T07:39:20;5.97;;;4.57;;
54705;SDS011;40603;48.774;8.916;2023-06-22T07:41:50;12.25;;;6.00;;
54705;SDS011;40603;48.774;8.916;2023-06-22T07:44:16;12.57;;;5.22;;
54705;SDS011;40603;48.774;8.916;2023-06-22T07:46:41;7.32;;;4.45;;
54705;SDS011;40603;48.774;8.916;2023-06-22T07:49:06;11.05;;;4.97;;
54705;SDS011;40603;48.774;8.916;2023-06-22T07:51:33;9.10;;;4.78;;
54705;SDS011;40603;48.774;8.916;2023-06-22T07:53:58;10.57;;;5.03;;
54705;SDS011;40603;48.774;8.916;2023-06-22T07:56:24;10.10;;;5.10;;
54705;SDS011;40603;48.774;8.916;2023-06-22T07:58:49;9.18;;;4.65;;
54705;SDS011;40603;48.774;8.916;2023-06-22T08:01:14;11.93;;;5.25;;
54705;SDS011;40603;48.774;8.916;2023-06-22T08:03:40;8.93;;;4.75;;
54705;SDS011;40603;48.774;8.916;2023-06-22T08:06:05;9.93;;;4.90;;
54705;SDS011;40603;48.774;8.916;2023-06-22T08:08:34;11.60;;;4.80;;
54705;SDS011;40603;48.774;8.916;2023-06-22T08:11:00;13.30;;;4.85;;
54705;SDS011;40603;48.774;8.916;2023-06-22T08:13:25;11.60;;;5.28;;
54705;SDS011;40603;48.774;8.916;2023-06-22T08:15:50;9.63;;;4.80;;
54705;SDS011;40603;48.774;8.916;2023-06-22T08:18:16;8.95;;;5.03;;
54705;SDS011;40603;48.774;8.916;2023-06-22T08:20:41;9.55;;;4.57;;
54705;SDS011;40603;48.774;8.916;2023-06-22T08:23:06;13.23;;;4.88;;
54705;SDS011;40603;48.774;8.916;2023-06-22T08:25:32;8.82;;;4.18;;
54705;SDS011;40603;48.774;8.916;2023-06-22T08:27:59;7.85;;;4.70;;
54705;SDS011;40603;48.774;8.916;2023-06-22T08:30:24;9.35;;;5.03;;
54705;SDS011;40603;48.774;8.916;2023-06-22T08:32:49;10.45;;;5.78;;
54705;SDS011;40603;48.774;8.916;2023-06-22T08:35:14;11.57;;;4.93;;
54705;SDS011;40603;48.774;8.916;2023-06-22T08:37:40;11.93;;;5.00;;
54705;SDS011;40603;48.774;8.916;2023-06-22T08:40:06;13.65;;;5.68;;
54705;SDS011;40603;48.774;8.916;2023-06-22T08:42:36;12.63;;;4.80;;
54705;SDS011;40603;48.774;8.916;2023-06-22T08:45:01;8.82;;;4.85;;
54705;SDS011;40603;48.774;8.916;2023-06-22T08:47:27;12.10;;;5.32;;
54705;SDS011;40603;48.774;8.916;2023-06-22T08:49:53;12.88;;;5.35;;
54705;SDS011;40603;48.774;8.916;2023-06-22T08:52:18;9.95;;;5.05;;
54705;SDS011;40603;48.774;8.916;2023-06-22T08:54:45;10.15;;;4.75;;
54705;SDS011;40603;48.774;8.916;2023-06-22T08:57:10;10.65;;;5.05;;
54705;SDS011;40603;48.774;8.916;2023-06-22T08:59:35;14.23;;;5.07;;
54705;SDS011;40603;48.774;8.916;2023-06-22T09:02:01;9.60;;;4.55;;
54705;SDS011;40603;48.774;8.916;2023-06-22T09:04:26;13.93;;;4.47;;
54705;SDS011;40603;48.774;8.916;2023-06-22T09:06:51;10.40;;;4.90;;
54705;SDS011;40603;48.774;8.916;2023-06-22T09:09:17;9.80;;;5.40;;
54705;SDS011;40603;48.774;8.916;2023-06-22T09:11:43;9.63;;;4.82;;
54705;SDS011;40603;48.774;8.916;2023-06-22T09:14:08;14.63;;;5.28;;
54705;SDS011;40603;48.774;8.916;2023-06-22T09:16:34;16.15;;;5.68;;
54705;SDS011;40603;48.774;8.916;2023-06-22T09:19:00;12.95;;;5.22;;
54705;SDS011;40603;48.774;8.916;2023-06-22T09:21:25;20.23;;;5.25;;
54705;SDS011;40603;48.774;8.916;2023-06-22T09:23:50;9.10;;;5.30;;
54705;SDS011;40603;48.774;8.916;2023-06-22T09:26:19;10.95;;;4.72;;
54705;SDS011;40603;48.774;8.916;2023-06-22T09:28:45;14.85;;;5.47;;
54705;SDS011;40603;48.774;8.916;2023-06-22T09:31:10;11.38;;;5.13;;
54705;SDS011;40603;48.774;8.916;2023-06-22T09:33:36;10.18;;;4.55;;
54705;SDS011;40603;48.774;8.916;2023-06-22T09:36:03;10.60;;;5.20;;
54705;SDS011;40603;48.774;8.916;2023-06-22T09:38:32;9.83;;;4.60;;
54705;SDS011;40603;48.774;8.916;2023-06-22T09:40:59;13.15;;;5.53;;
54705;SDS011;40603;48.774;8.916;2023-06-22T09:43:25;9.85;;;4.95;;
54705;SDS011;40603;48.774;8.916;2023-06-22T09:45:50;10.70;;;5.22;;
54705;SDS011;40603;48.774;8.916;2023-06-22T09:48:15;14.35;;;5.28;;
54705;SDS011;40603;48.774;8.916;2023-06-22T09:50:41;16.55;;;5.20;;
54705;SDS011;40603;48.774;8.916;2023-06-22T09:53:06;12.07;;;5.55;;
54705;SDS011;40603;48.774;8.916;2023-06-22T09:55:31;15.07;;;5.22;;
54705;SDS011;40603;48.774;8.916;2023-06-22T09:57:57;14.85;;;5.35;;
54705;SDS011;40603;48.774;8.916;2023-06-22T10:00:22;11.85;;;5.28;;
54705;SDS011;40603;48.774;8.916;2023-06-22T10:02:47;13.43;;;4.93;;
54705;SDS011;40603;48.774;8.916;2023-06-22T10:05:13;10.15;;;5.07;;
54705;SDS011;40603;48.774;8.916;2023-06-22T10:07:38;10.18;;;5.45;;
54705;SDS011;40603;48.774;8.916;2023-06-22T10:10:07;13.23;;;5.20;;
54705;SDS011;40603;48.774;8.916;2023-06-22T10:12:33;12.23;;;5.20;;
54705;SDS011;40603;48.774;8.916;2023-06-22T10:14:58;12.27;;;5.30;;
54705;SDS011;40603;48.774;8.916;2023-06-22T10:17:23;15.18;;;5.50;;
54705;SDS011;40603;48.774;8.916;2023-06-22T10:19:49;14.10;;;5.93;;
54705;SDS011;40603;48.774;8.916;2023-06-22T10:22:14;15.48;;;5.63;;
54705;SDS011;40603;48.774;8.916;2023-06-22T10:24:39;13.15;;;5.10;;
54705;SDS011;40603;48.774;8.916;2023-06-22T10:27:09;16.10;;;4.95;;
54705;SDS011;40603;48.774;8.916;2023-06-22T10:29:35;15.32;;;5.15;;
54705;SDS011;40603;48.774;8.916;2023-06-22T10:32:00;14.15;;;5.40;;
54705;SDS011;40603;48.774;8.916;2023-06-22T10:34:26;18.90;;;5.07;;
54705;SDS011;40603;48.774;8.916;2023-06-22T10:36:51;17.70;;;5.10;;
54705;SDS011;40603;48.774;8.916;2023-06-22T10:39:16;14.40;;;5.13;;
54705;SDS011;40603;48.774;8.916;2023-06-22T10:41:42;13.52;;;5.47;;
54705;SDS011;40603;48.774;8.916;2023-06-22T10:44:07;13.52;;;5.28;;
54705;SDS011;40603;48.774;8.916;2023-06-22T10:46:32;13.05;;;5.10;;
54705;SDS011;40603;48.774;8.916;2023-06-22T10:48:58;16.92;;;5.43;;
54705;SDS011;40603;48.774;8.916;2023-06-22T10:51:23;13.07;;;5.85;;
54705;SDS011;40603;48.774;8.916;2023-06-22T10:53:50;14.02;;;5.32;;
54705;SDS011;40603;48.774;8.916;2023-06-22T10:56:16;11.45;;;5.18;;
54705;SDS011;40603;48.774;8.916;2023-06-22T10:58:41;12.73;;;5.53;;
54705;SDS011;40603;48.774;8.916;2023-06-22T11:01:06;13.05;;;5.05;;
54705;SDS011;40603;48.774;8.916;2023-06-22T11:03:31;13.30;;;6.13;;
54705;SDS011;40603;48.774;8.916;2023-06-22T11:05:57;20.33;;;5.63;;
54705;SDS011;40603;48.774;8.916;2023-06-22T11:08:22;14.30;;;5.32;;
54705;SDS011;40603;48.774;8.916;2023-06-22T11:10:47;9.80;;;5.57;;
54705;SDS011;40603;48.774;8.916;2023-06-22T11:13:13;12.80;;;5.07;;
54705;SDS011;40603;48.774;8.916;2023-06-22T11:15:38;17.20;;;5.78;;
54705;SDS011;40603;48.774;8.916;2023-06-22T11:18:05;8.77;;;4.90;;
54705;SDS011;40603;48.774;8.916;2023-06-22T11:20:32;11.15;;;5.05;;
54705;SDS011;40603;48.774;8.916;2023-06-22T11:22:59;16.33;;;6.57;;
54705;SDS011;40603;48.774;8.916;2023-06-22T11:25:24;14.48;;;5.65;;
54705;SDS011;40603;48.774;8.916;2023-06-22T11:27:50;14.10;;;5.07;;
54705;SDS011;40603;48.774;8.916;2023-06-22T11:30:16;15.88;;;5.70;;
54705;SDS011;40603;48.774;8.916;2023-06-22T11:32:41;17.60;;;4.97;;
54705;SDS011;40603;48.774;8.916;2023-06-22T11:35:06;17.08;;;5.55;;
54705;SDS011;40603;48.774;8.916;2023-06-22T11:37:32;13.85;;;5.53;;
54705;SDS011;40603;48.774;8.916;2023-06-22T11:39:58;13.85;;;5.32;;
54705;SDS011;40603;48.774;8.916;2023-06-22T11:42:23;16.38;;;5.28;;
54705;SDS011;40603;48.774;8.916;2023-06-22T11:44:49;16.23;;;6.03;;
54705;SDS011;40603;48.774;8.916;2023-06-22T11:47:14;14.23;;;5.45;;
54705;SDS011;40603;48.774;8.916;2023-06-22T11:49:39;12.27;;;5.22;;
54705;SDS011;40603;48.774;8.916;2023-06-22T11:52:05;14.65;;;5.72;;
54705;SDS011;40603;48.774;8.916;2023-06-22T11:54:31;17.02;;;6.13;;
54705;SDS011;40603;48.774;8.916;2023-06-22T11:56:56;15.00;;;6.13;;
54705;SDS011;40603;48.774;8.916;2023-06-22T11:59:21;16.25;;;5.88;;
54705;SDS011;40603;48.774;8.916;2023-06-22T12:01:47;17.02;;;5.82;;
54705;SDS011;40603;48.774;8.916;2023-06-22T12:04:12;14.80;;;5.47;;
54705;SDS011;40603;48.774;8.916;2023-06-22T12:06:38;10.00;;;5.38;;
54705;SDS011;40603;48.774;8.916;2023-06-22T12:09:06;14.68;;;5.63;;
54705;SDS011;40603;48.774;8.916;2023-06-22T12:11:31;15.98;;;5.70;;
54705;SDS011;40603;48.774;8.916;2023-06-22T12:13:56;12.02;;;5.75;;
54705;SDS011;40603;48.774;8.916;2023-06-22T12:16:26;21.02;;;7.07;;
54705;SDS011;40603;48.774;8.916;2023-06-22T12:18:51;14.77;;;5.03;;
54705;SDS011;40603;48.774;8.916;2023-06-22T12:21:17;18.15;;;5.95;;
54705;SDS011;40603;48.774;8.916;2023-06-22T12:23:42;12.70;;;6.10;;
54705;SDS011;40603;48.774;8.916;2023-06-22T12:26:07;15.45;;;5.63;;
54705;SDS011;40603;48.774;8.916;2023-06-22T12:28:33;13.88;;;6.10;;
54705;SDS011;40603;48.774;8.916;2023-06-22T12:30:58;15.73;;;5.65;;
54705;SDS011;40603;48.774;8.916;2023-06-22T12:33:23;12.68;;;5.70;;
54705;SDS011;40603;48.774;8.916;2023-06-22T12:35:48;13.93;;;5.57;;
54705;SDS011;40603;48.774;8.916;2023-06-22T12:38:14;19.05;;;5.60;;
54705;SDS011;40603;48.774;8.916;2023-06-22T12:40:39;15.70;;;5.75;;
54705;SDS011;40603;48.774;8.916;2023-06-22T12:43:04;17.15;;;5.68;;
54705;SDS011;40603;48.774;8.916;2023-06-22T12:45:30;15.93;;;5.57;;
54705;SDS011;40603;48.774;8.916;2023-06-22T12:47:58;14.02;;;5.53;;
54705;SDS011;40603;48.774;8.916;2023-06-22T12:50:24;17.58;;;5.45;;
54705;SDS011;40603;48.774;8.916;2023-06-22T12:52:49;11.50;;;5.38;;
54705;SDS011;40603;48.774;8.916;2023-06-22T12:55:15;16.35;;;5.78;;
54705;SDS011;40603;48.774;8.916;2023-06-22T12:57:40;14.73;;;5.82;;
54705;SDS011;40603;48.774;8.916;2023-06-22T13:00:05;17.58;;;6.07;;
54705;SDS011;40603;48.774;8.916;2023-06-22T13:02:33;11.82;;;4.95;;
54705;SDS011;40603;48.774;8.916;2023-06-22T13:04:58;11.68;;;5.95;;
54705;SDS011;40603;48.774;8.916;2023-06-22T13:07:23;13.57;;;5.47;;
54705;SDS011;40603;48.774;8.916;2023-06-22T13:09:49;16.85;;;5.60;;
54705;SDS011;40603;48.774;8.916;2023-06-22T13:12:17;21.70;;;6.63;;
54705;SDS011;40603;48.774;8.916;2023-06-22T13:14:43;14.43;;;6.38;;
54705;SDS011;40603;48.774;8.916;2023-06-22T13:17:08;12.05;;;5.68;;
54705;SDS011;40603;48.774;8.916;2023-06-22T13:19:34;13.80;;;6.43;;
54705;SDS011;40603;48.774;8.916;2023-06-22T13:21:59;12.65;;;5.82;;
54705;SDS011;40603;48.774;8.916;2023-06-22T13:24:25;10.63;;;5.43;;
54705;SDS011;40603;48.774;8.916;2023-06-22T13:26:50;15.20;;;5.47;;
54705;SDS011;40603;48.774;8.916;2023-06-22T13:29:15;11.80;;;5.70;;
54705;SDS011;40603;48.774;8.916;2023-06-22T13:31:41;18.95;;;6.07;;
54705;SDS011;40603;48.774;8.916;2023-06-22T13:34:06;10.60;;;4.50;;
54705;SDS011;40603;48.774;8.916;2023-06-22T13:36:31;14.75;;;5.18;;
54705;SDS011;40603;48.774;8.916;2023-06-22T13:38:57;16.77;;;5.25;;
54705;SDS011;40603;48.774;8.916;2023-06-22T13:41:22;17.75;;;5.93;;
54705;SDS011;40603;48.774;8.916;2023-06-22T13:43:47;15.40;;;5.32;;
54705;SDS011;40603;48.774;8.916;2023-06-22T13:46:13;8.70;;;4.53;;
54705;SDS011;40603;48.774;8.916;2023-06-22T13:48:38;15.65;;;5.35;;
54705;SDS011;40603;48.774;8.916;2023-06-22T13:51:03;10.27;;;4.97;;
54705;SDS011;40603;48.774;8.916;2023-06-22T13:53:29;14.90;;;5.28;;
54705;SDS011;40603;48.774;8.916;2023-06-22T13:55:54;12.52;;;4.78;;
54705;SDS011;40603;48.774;8.916;2023-06-22T13:58:19;11.95;;;5.28;;
54705;SDS011;40603;48.774;8.916;2023-06-22T14:00:45;14.98;;;5.90;;
54705;SDS011;40603;48.774;8.916;2023-06-22T14:03:10;17.05;;;4.88;;
54705;SDS011;40603;48.774;8.916;2023-06-22T14:05:35;14.40;;;5.55;;
54705;SDS011;40603;48.774;8.916;2023-06-22T14:08:01;10.70;;;5.35;;
54705;SDS011;40603;48.774;8.916;2023-06-22T14:10:26;18.95;;;5.05;;
54705;SDS011;40603;48.774;8.916;2023-06-22T14:12:51;17.02;;;5.32;;
54705;SDS011;40603;48.774;8.916;2023-06-22T14:15:18;13.00;;;5.07;;
54705;SDS011;40603;48.774;8.916;2023-06-22T14:17:43;12.43;;;4.70;;
54705;SDS011;40603;48.774;8.916;2023-06-22T14:20:08;14.68;;;5.45;;
54705;SDS011;40603;48.774;8.916;2023-06-22T14:22:34;11.45;;;3.25;;
54705;SDS011;40603;48.774;8.916;2023-06-22T14:25:00;11.52;;;3.38;;
54705;SDS011;40603;48.774;8.916;2023-06-22T14:27:26;20.20;;;3.65;;
54705;SDS011;40603;48.774;8.916;2023-06-22T14:29:51;15.57;;;3.92;;
54705;SDS011;40603;48.774;8.916;2023-06-22T14:32:17;12.30;;;3.55;;